Jump to content


SKYWEST AIRLINES FLIGHT OO1686 FLOWN ON 01-28-2018 BY CAPTAIN JIM BOERMAN

Pilot StatsCaptain Jim Boerman (LDP136) • 4,917.8 total hours • 1,480 total flights [View Logbook]
FLIGHT DETAILS
StatusReceived and approved on 2018-01-28 at 10:01:17
Origin AirportCincinnati-Northern Ky Intl (KCVG) • Cincinnati, Ohio, United States (896 feet MSL)
Filed Flight PlanFLIGHT PLANNER OFFLINE
Destination AirportMcGhee Tyson (KTYS) • Knoxville, Tennessee, United States (981 feet MSL)
Alternate AirportTri-Cities Regl Tn-Va (KTRI) • Bristol-Johnson-Kingspor, Tennessee, United States (1,519 feet MSL)
AirlineSkywest Airlines
AircraftBombardier CRJ-705 (CRA / CRJ-705)
FS Aircraft UsedCRJ700ER Delta Airways N367CA
Cruising AltitudeFL330
Distance Flown197 nautical miles
Passengers Onboard28 passengers (37.33% full)
DEPARTURE DETAILS
Time Out09:28:06
Taxi Data70,112 lbs total with 11,015 lbs of fuel onboard
Takeoff Data09:44:48 (17 minutes after leaving gate/ramp) • 69,748 lbs total • 7° pitch at 156 knots
Departure METARKCVG 281301Z 00000KT 1/8SM R18C/0800V1000FT FG VV001 00/00 A3032 RMK AO2 TWR VIS 1/4 T00000000
ARRIVAL DETAILS
Landing Data10:37:48 • 66,227 lbs total • 4° pitch doing 118 knots at a rate of -316.81 feet/minute with 6,627 lbs of fuel onboard
Time In10:45:46 (8 minutes after landing)
Ramp Weight65,980 lbs total
Total Fuel Used4,388 lbs
Total Block Time01:17:22 (1.3 hours) while 25 minutes were spent on the ground
Arrival METARKTYS 281453Z 02005KT 3/4SM -RA BR SCT008 OVC014 09/09 A3024 RMK AO2 SFC VIS 1 3/4 SLP237 P0006 60012 T00940094 50002
MISCELLANEOUS DETAILS
LiveDISPATCH Version4.8.3.1
FS Version
FSUIPC Version5.12
OS VersionWindows 7 32-bit
Screen Resolution1920 x 1080
Pilot's CommentsNo Comments Reported
FLIGHT MAP